Terminal Aerodrome Forecast
Issued by NWS

Home | Current Version | Previous Version | Text Only | Print | Product List | Glossary On
Versions: 1 2 3 4 5 6 7 8 9 10 11 12 13
000
FTUS45 KREV 171700
TAFTRK
TAF
KTRK 171722Z 1718/1818 21008KT P6SM FEW250
     FM172000 23014G24KT P6SM SCT200
     FM180300 21007KT P6SM BKN140=

USA.gov is the U.S. government's official web portal to all federal, state and local government web resources and services.